Time;durP1;ratioP1;P1;durP2;ratioP2;P2;SDS_P1;SDS_P2;PMS_P1;PMS_P2;Temp;Humidity;BMP_temperature;BMP_pressure;BME280_temperature;BME280_humidity;BME280_pressure;Samples;Min_cycle;Max_cycle;Signal;HPM_P1;HPM_P2
2021/01/02 00:01:53;;;;;;;47.67;26.37;;;5.00;99.90;;;-146.47;100.00;66290.13;4901665;29;20743;-82
2021/01/02 00:05:07;;;;;;;44.07;25.70;;;5.00;99.90;;;-146.47;100.00;66290.13;4899145;29;20254;-82
2021/01/02 00:08:13;;;;;;;45.90;26.90;;;5.00;99.90;;;-146.47;100.00;66290.13;4903480;29;20743;-84
2021/01/02 00:11:38;;;;;;;49.93;29.90;;;5.00;99.90;;;-146.47;100.00;66290.13;4901655;29;20196;-81
2021/01/02 00:14:38;;;;;;;48.53;27.13;;;5.00;99.90;;;-146.47;100.00;66290.13;4904304;29;20281;-82
2021/01/02 00:18:21;;;;;;;48.43;27.27;;;5.00;99.90;;;-146.47;100.00;66290.13;4900995;29;21024;-80
2021/01/02 00:21:22;;;;;;;43.77;25.17;;;5.00;99.90;;;-146.47;100.00;66290.13;4826427;29;20218;-81
2021/01/02 00:24:36;;;;;;;45.80;28.97;;;5.00;99.90;;;-146.47;100.00;66290.13;4825528;29;20234;-81
2021/01/02 00:27:28;;;;;;;49.60;29.50;;;5.00;99.90;;;-146.47;100.00;66290.13;4896791;29;20751;-82
2021/01/02 00:30:35;;;;;;;47.13;27.10;;;5.00;99.90;;;-146.47;100.00;66290.13;4903696;29;20212;-81
2021/01/02 00:33:30;;;;;;;49.63;28.07;;;5.00;99.90;;;-146.47;100.00;66290.13;4899525;29;20224;-81
2021/01/02 00:36:24;;;;;;;50.73;29.37;;;5.00;99.90;;;-146.47;100.00;66290.13;4898793;29;20203;-82
2021/01/02 00:39:20;;;;;;;53.47;27.93;;;5.00;99.90;;;-146.47;100.00;66290.13;4891568;29;20220;-82
2021/01/02 00:42:06;;;;;;;51.93;29.93;;;5.00;99.90;;;-146.47;100.00;66290.13;4897389;29;20228;-82
2021/01/02 00:44:55;;;;;;;52.87;31.43;;;5.00;99.90;;;-146.47;100.00;66290.13;4900621;29;20236;-81
2021/01/02 00:47:43;;;;;;;49.63;28.63;;;5.00;99.90;;;-146.47;100.00;66290.13;4891250;29;20200;-80
2021/01/02 00:50:29;;;;;;;56.43;33.30;;;5.00;99.90;;;-146.47;100.00;66290.13;4901837;29;20257;-82
2021/01/02 00:53:47;;;;;;;52.50;31.27;;;5.00;99.90;;;-146.47;100.00;66290.13;4896192;29;20220;-81
2021/01/02 00:56:42;;;;;;;48.03;27.90;;;5.00;99.90;;;-146.47;100.00;66290.13;4899566;29;20277;-82
2021/01/02 01:00:02;;;;;;;53.17;27.37;;;5.00;99.90;;;-146.47;100.00;66290.13;4902585;29;20288;-81
2021/01/02 01:03:03;;;;;;;46.43;27.00;;;5.00;99.90;;;-146.47;100.00;66290.13;4902099;29;20716;-80
2021/01/02 01:05:49;;;;;;;49.90;27.60;;;5.00;99.90;;;-146.47;100.00;66290.13;4899468;29;20307;-78
2021/01/02 01:08:35;;;;;;;38.47;22.10;;;4.90;99.90;;;-146.47;100.00;66290.13;4900771;29;20281;-82
2021/01/02 01:11:23;;;;;;;56.30;30.67;;;4.90;99.90;;;-146.47;100.00;66290.13;4891536;29;20215;-82
2021/01/02 01:14:08;;;;;;;50.17;27.53;;;4.90;99.90;;;-146.47;100.00;66290.13;4901721;29;20300;-81
2021/01/02 01:17:02;;;;;;;47.03;27.53;;;4.90;99.90;;;-146.47;100.00;66290.13;4900934;29;20604;-83
2021/01/02 01:19:53;;;;;;;49.37;28.77;;;5.10;99.90;;;-146.47;100.00;66290.13;4893118;29;20201;-82
2021/01/02 01:22:51;;;;;;;46.83;27.17;;;4.90;99.90;;;-146.47;100.00;66290.13;4899539;29;20705;-84
2021/01/02 01:25:52;;;;;;;46.70;27.87;;;4.90;99.90;;;-146.47;100.00;66290.13;4901186;29;20260;-81
2021/01/02 01:28:40;;;;;;;51.53;30.27;;;4.90;99.90;;;-146.47;100.00;66290.13;4896763;29;20225;-81
2021/01/02 01:31:44;;;;;;;49.80;27.90;;;4.90;99.90;;;-146.47;100.00;66290.13;4901858;29;20208;-82
2021/01/02 01:34:34;;;;;;;46.97;27.60;;;4.90;99.90;;;-146.47;100.00;66290.13;4895982;29;20235;-83
2021/01/02 01:37:25;;;;;;;45.03;25.33;;;4.90;99.90;;;-146.47;100.00;66290.13;4894888;29;20645;-81
2021/01/02 01:40:22;;;;;;;46.73;28.23;;;4.90;99.90;;;-146.47;100.00;66290.13;4892761;29;20209;-81
2021/01/02 01:43:26;;;;;;;45.40;29.80;;;4.90;99.90;;;-146.47;100.00;66290.13;4899629;29;20250;-83
2021/01/02 01:46:14;;;;;;;50.07;28.20;;;4.90;99.90;;;-146.47;100.00;66290.13;4902941;29;20283;-82
2021/01/02 01:49:09;;;;;;;46.20;28.43;;;4.90;99.90;;;-146.47;100.00;66290.13;4903715;29;20208;-81
2021/01/02 01:52:00;;;;;;;47.30;29.00;;;4.90;99.90;;;-146.47;100.00;66290.13;4905842;29;20236;-81
2021/01/02 01:55:06;;;;;;;46.10;27.73;;;4.90;99.90;;;-146.47;100.00;66290.13;4904032;29;20244;-80
2021/01/02 01:57:52;;;;;;;43.20;27.23;;;4.90;99.90;;;-146.47;100.00;66290.13;4905433;29;20199;-81
2021/01/02 02:00:45;;;;;;;42.70;24.27;;;4.80;99.90;;;-146.47;100.00;66290.13;4903742;29;20200;-83
2021/01/02 02:03:45;;;;;;;44.63;26.13;;;4.80;99.90;;;-146.47;100.00;66290.13;4901280;29;20252;-82
2021/01/02 02:06:31;;;;;;;49.93;28.33;;;4.80;99.90;;;-146.47;100.00;66290.13;4900968;29;20256;-81
2021/01/02 02:09:21;;;;;;;45.40;27.57;;;4.80;99.90;;;-146.47;100.00;66290.13;4901983;29;20245;-82
2021/01/02 02:12:20;;;;;;;44.27;26.83;;;4.80;99.90;;;-146.47;100.00;66290.13;4903638;29;20246;-82
2021/01/02 02:15:10;;;;;;;50.03;28.77;;;4.80;99.90;;;-146.47;100.00;66290.13;4893934;29;20293;-82
2021/01/02 02:18:06;;;;;;;43.47;26.57;;;4.80;99.90;;;-146.47;100.00;66290.13;4900373;29;20235;-81
2021/01/02 02:20:55;;;;;;;42.27;27.17;;;4.80;99.90;;;-146.47;100.00;66290.13;4903586;29;20228;-82
2021/01/02 02:23:43;;;;;;;46.33;28.70;;;4.80;99.90;;;-146.47;100.00;66290.13;4904541;29;20703;-81
2021/01/02 02:26:34;;;;;;;46.60;28.30;;;4.80;99.90;;;-146.47;100.00;66290.13;4896347;29;20212;-82
2021/01/02 02:29:27;;;;;;;46.00;29.70;;;4.80;99.90;;;-146.47;100.00;66290.13;4899550;29;20208;-80
2021/01/02 02:32:17;;;;;;;46.30;28.33;;;4.80;99.90;;;-146.47;100.00;66290.13;4904854;29;20709;-81
2021/01/02 02:35:10;;;;;;;42.47;26.10;;;4.80;99.90;;;-146.47;100.00;66290.13;4900149;29;20224;-81
2021/01/02 02:37:56;;;;;;;46.77;30.17;;;4.80;99.90;;;-146.47;100.00;66290.13;4894489;29;20218;-81
2021/01/02 02:40:41;;;;;;;45.90;27.50;;;4.80;99.90;;;-146.47;100.00;66290.13;4901622;29;20235;-82
2021/01/02 02:43:28;;;;;;;45.60;27.67;;;4.80;99.90;;;-146.47;100.00;66290.13;4900374;29;20731;-81
2021/01/02 02:46:20;;;;;;;50.50;29.23;;;4.70;99.90;;;-146.47;100.00;66290.13;4905984;29;20265;-82
2021/01/02 02:49:10;;;;;;;43.37;26.40;;;4.80;99.90;;;-146.47;100.00;66290.13;4905730;29;20216;-81
2021/01/02 02:52:11;;;;;;;43.97;27.77;;;4.70;99.90;;;-146.47;100.00;66290.13;4899482;29;20256;-80
2021/01/02 02:54:59;;;;;;;46.87;29.50;;;4.70;99.90;;;-146.47;100.00;66290.13;4899765;29;20235;-81
2021/01/02 02:57:48;;;;;;;44.20;26.97;;;4.70;99.90;;;-146.47;100.00;66290.13;4901832;29;20261;-80
2021/01/02 03:00:35;;;;;;;46.33;27.83;;;4.70;99.90;;;-146.47;100.00;66290.13;4901790;29;20229;-81
2021/01/02 03:03:21;;;;;;;46.73;28.10;;;4.70;99.90;;;-146.47;100.00;66290.13;4896278;29;20662;-81
2021/01/02 03:06:06;;;;;;;45.07;29.43;;;4.70;99.90;;;-146.47;100.00;66290.13;4901024;29;20248;-81
2021/01/02 03:08:55;;;;;;;47.93;28.53;;;4.70;99.90;;;-146.47;100.00;66290.13;4905069;29;20767;-81
2021/01/02 03:11:42;;;;;;;46.63;28.60;;;4.70;99.90;;;-146.47;100.00;66290.13;4894428;29;20238;-81
2021/01/02 03:14:28;;;;;;;50.27;29.27;;;4.70;99.90;;;-146.47;100.00;66290.13;4905491;29;20291;-80
2021/01/02 03:17:13;;;;;;;42.00;28.90;;;4.70;99.90;;;-146.47;100.00;66290.13;4898698;29;20269;-82
2021/01/02 03:19:58;;;;;;;42.80;26.97;;;4.70;99.90;;;-146.47;100.00;66290.13;4902622;29;20212;-80
2021/01/02 03:22:46;;;;;;;45.60;28.70;;;4.70;99.90;;;-146.47;100.00;66290.13;4902901;29;20212;-83
2021/01/02 03:25:32;;;;;;;45.43;28.87;;;4.70;99.90;;;-146.47;100.00;66290.13;4902913;29;20297;-80
2021/01/02 03:28:18;;;;;;;46.27;30.13;;;4.70;99.90;;;-146.47;100.00;66290.13;4902238;29;20341;-81
2021/01/02 03:31:03;;;;;;;44.87;29.13;;;4.70;99.90;;;-146.47;100.00;66290.13;4903047;29;20241;-80
2021/01/02 03:33:48;;;;;;;47.67;31.80;;;4.70;99.90;;;-146.47;100.00;66290.13;4897236;29;20295;-81
2021/01/02 03:36:34;;;;;;;46.03;29.93;;;4.70;99.90;;;-146.47;100.00;66290.13;4899674;29;20769;-81
2021/01/02 03:39:19;;;;;;;46.60;29.50;;;4.60;99.90;;;-146.47;100.00;66290.13;4899528;29;20204;-81
2021/01/02 03:42:08;;;;;;;44.97;28.97;;;4.60;99.90;;;-146.47;100.00;66290.13;4905244;29;20236;-81
2021/01/02 03:44:53;;;;;;;42.17;26.87;;;4.60;99.90;;;-146.47;100.00;66290.13;4899829;29;20229;-81
2021/01/02 03:47:44;;;;;;;48.97;32.03;;;4.60;99.90;;;-146.47;100.00;66290.13;4892457;29;20257;-81
2021/01/02 03:50:29;;;;;;;43.47;28.83;;;4.60;99.90;;;-146.47;100.00;66290.13;4905960;29;20212;-81
2021/01/02 03:53:15;;;;;;;46.10;29.30;;;4.60;99.90;;;-146.47;100.00;66290.13;4901141;29;20252;-81
2021/01/02 03:55:59;;;;;;;53.13;31.10;;;4.50;99.90;;;-146.47;100.00;66290.13;4904993;29;20434;-81
2021/01/02 03:58:46;;;;;;;51.40;30.10;;;4.60;99.90;;;-146.47;100.00;66290.13;4894258;29;20208;-79
2021/01/02 04:01:31;;;;;;;45.07;28.63;;;4.60;99.90;;;-146.47;100.00;66290.13;4898989;29;20212;-81
2021/01/02 04:04:16;;;;;;;49.93;31.90;;;4.50;99.90;;;-146.47;100.00;66290.13;4895429;29;20240;-80
2021/01/02 04:07:03;;;;;;;45.67;31.50;;;4.50;99.90;;;-146.47;100.00;66290.13;4885332;29;20209;-82
2021/01/02 04:09:48;;;;;;;44.07;28.80;;;4.50;99.90;;;-146.47;100.00;66290.13;4912837;29;20211;-82
2021/01/02 04:12:33;;;;;;;50.70;33.03;;;4.50;99.90;;;-146.47;100.00;66290.13;4905727;29;20240;-80
2021/01/02 04:15:19;;;;;;;44.50;29.87;;;4.50;99.90;;;-146.47;100.00;66290.13;4906463;29;20768;-82
2021/01/02 04:18:05;;;;;;;48.47;30.53;;;4.50;99.90;;;-146.47;100.00;66290.13;4903952;29;20233;-80
2021/01/02 04:20:50;;;;;;;44.67;28.00;;;4.50;99.90;;;-146.47;100.00;66290.13;4900391;29;20244;-81
2021/01/02 04:23:35;;;;;;;46.53;29.60;;;4.50;99.90;;;-146.47;100.00;66290.13;4906463;29;20204;-81
2021/01/02 04:26:23;;;;;;;48.80;31.87;;;4.50;99.90;;;-146.47;100.00;66290.13;4899420;29;20216;-82
2021/01/02 04:29:08;;;;;;;44.70;29.20;;;4.50;99.90;;;-146.47;100.00;66290.13;4902438;29;20224;-80
2021/01/02 04:31:55;;;;;;;45.40;28.20;;;4.40;99.90;;;-146.47;100.00;66290.13;4890542;29;20258;-81
2021/01/02 04:34:40;;;;;;;44.20;28.53;;;4.40;99.90;;;-146.47;100.00;66290.13;4901459;29;20231;-81
2021/01/02 04:37:27;;;;;;;46.13;28.97;;;4.40;99.90;;;-146.47;100.00;66290.13;4900193;29;20216;-81
2021/01/02 04:40:14;;;;;;;46.33;29.40;;;4.40;99.90;;;-146.47;100.00;66290.13;4900984;29;20337;-81
2021/01/02 04:43:00;;;;;;;48.47;28.73;;;4.40;99.90;;;-146.47;100.00;66290.13;4917485;29;20731;-81
2021/01/02 04:45:44;;;;;;;46.63;29.37;;;4.40;99.90;;;-146.47;100.00;66290.13;4903891;29;20231;-82
2021/01/02 04:48:30;;;;;;;48.67;30.60;;;4.40;99.90;;;-146.47;100.00;66290.13;4893208;29;20966;-81
2021/01/02 04:51:18;;;;;;;49.60;30.03;;;4.40;99.90;;;-146.47;100.00;66290.13;4898268;29;20228;-83
2021/01/02 04:54:06;;;;;;;44.07;26.90;;;4.30;99.90;;;-146.47;100.00;66290.13;4903514;29;20236;-82
2021/01/02 04:56:52;;;;;;;51.03;31.57;;;4.30;99.90;;;-146.47;100.00;66290.13;4891227;29;20212;-83
2021/01/02 04:59:40;;;;;;;37.17;24.20;;;4.30;99.90;;;-146.47;100.00;66290.13;4895729;29;20223;-80
2021/01/02 05:02:29;;;;;;;47.40;34.03;;;4.30;99.90;;;-146.47;100.00;66290.13;4895276;29;20271;-80
2021/01/02 05:05:19;;;;;;;48.80;30.47;;;4.30;99.90;;;-146.47;100.00;66290.13;4884331;29;20598;-81
2021/01/02 05:08:05;;;;;;;45.00;28.47;;;4.30;99.90;;;-146.47;100.00;66290.13;4898916;29;20529;-82
2021/01/02 05:10:59;;;;;;;49.20;28.67;;;4.20;99.90;;;-146.47;100.00;66290.13;4884443;29;20276;-81
2021/01/02 05:13:46;;;;;;;50.60;31.00;;;4.20;99.90;;;-146.47;100.00;66290.13;4896241;29;20220;-81
2021/01/02 05:16:36;;;;;;;50.20;29.43;;;4.10;99.90;;;-146.47;100.00;66290.13;4896350;29;20237;-82
2021/01/02 05:19:21;;;;;;;52.83;32.63;;;4.10;99.90;;;-146.47;100.00;66290.13;4892507;29;20220;-80
2021/01/02 05:22:23;;;;;;;48.17;29.90;;;4.10;99.90;;;-146.47;100.00;66290.13;4904331;29;20276;-81
2021/01/02 05:25:15;;;;;;;52.27;31.83;;;4.10;99.90;;;-146.47;100.00;66290.13;4904814;29;20224;-81
2021/01/02 05:28:01;;;;;;;53.97;33.93;;;4.10;99.90;;;-146.47;100.00;66290.13;4933295;28;20203;-80
2021/01/02 05:30:46;;;;;;;58.30;32.70;;;4.10;99.90;;;-146.47;100.00;66290.13;4936518;28;20213;-79
2021/01/02 05:33:31;;;;;;;49.33;30.53;;;4.10;99.90;;;-146.47;100.00;66290.13;4910101;29;20228;-80
2021/01/02 05:36:21;;;;;;;56.87;31.77;;;4.10;99.90;;;-146.47;100.00;66290.13;4900889;29;20258;-79
2021/01/02 05:39:11;;;;;;;57.53;33.07;;;4.10;99.90;;;-146.47;100.00;66290.13;4899802;29;20208;-80
2021/01/02 05:41:56;;;;;;;59.20;34.57;;;4.20;99.90;;;-146.47;100.00;66290.13;4898688;29;20219;-81
2021/01/02 05:44:42;;;;;;;56.33;31.70;;;4.10;99.90;;;-146.47;100.00;66290.13;4900357;29;20305;-80
2021/01/02 05:47:29;;;;;;;54.20;30.80;;;4.20;99.90;;;-146.47;100.00;66290.13;4900329;29;20216;-81
2021/01/02 05:50:21;;;;;;;54.27;31.97;;;4.40;99.90;;;-146.47;100.00;66290.13;4897395;29;20212;-80
2021/01/02 05:53:24;;;;;;;51.10;31.47;;;4.20;99.90;;;-146.47;100.00;66290.13;4900785;29;20204;-80
2021/01/02 05:56:13;;;;;;;50.10;32.00;;;4.20;99.90;;;-146.47;100.00;66290.13;4901251;29;20208;-80
2021/01/02 05:58:59;;;;;;;56.37;32.17;;;4.20;99.90;;;-146.47;100.00;66290.13;4892205;29;20249;-81
2021/01/02 06:01:44;;;;;;;55.83;33.63;;;4.20;99.90;;;-146.47;100.00;66290.13;4900663;29;20211;-81
2021/01/02 06:04:29;;;;;;;56.57;32.77;;;4.20;99.90;;;-146.47;100.00;66290.13;4900311;29;20292;-81
2021/01/02 06:07:14;;;;;;;57.17;31.87;;;4.20;99.90;;;-146.47;100.00;66290.13;4896010;29;20207;-80
2021/01/02 06:10:01;;;;;;;52.60;29.20;;;4.20;99.90;;;-146.47;100.00;66290.13;4902528;29;20240;-81
2021/01/02 06:12:49;;;;;;;58.33;31.87;;;4.20;99.90;;;-146.47;100.00;66290.13;4901766;29;20244;-80
2021/01/02 06:15:34;;;;;;;55.57;30.60;;;4.20;99.90;;;-146.47;100.00;66290.13;4898245;29;20231;-81
2021/01/02 06:18:19;;;;;;;64.70;35.33;;;4.20;99.90;;;-146.47;100.00;66290.13;4891535;29;20244;-81
2021/01/02 06:21:08;;;;;;;55.03;32.97;;;4.20;99.90;;;-146.47;100.00;66290.13;4900094;29;20211;-80
2021/01/02 06:23:53;;;;;;;62.90;33.87;;;4.20;99.90;;;-146.47;100.00;66290.13;4898522;29;20237;-81
2021/01/02 06:26:39;;;;;;;60.03;34.00;;;4.20;99.90;;;-146.47;100.00;66290.13;4889844;29;20220;-80
2021/01/02 06:29:24;;;;;;;54.57;32.27;;;4.30;99.90;;;-146.47;100.00;66290.13;4891843;29;20274;-80
2021/01/02 06:32:10;;;;;;;65.90;35.50;;;4.30;99.90;;;-146.47;100.00;66290.13;4900459;29;20212;-82
2021/01/02 06:35:18;;;;;;;52.87;30.37;;;4.30;99.90;;;-146.47;100.00;66290.13;4898608;29;20316;-79
2021/01/02 06:38:15;;;;;;;56.63;31.00;;;4.30;99.90;;;-146.47;100.00;66290.13;4891342;29;20312;-81
2021/01/02 06:41:00;;;;;;;60.37;34.23;;;4.30;99.90;;;-146.47;100.00;66290.13;4885793;29;20205;-81
2021/01/02 06:43:45;;;;;;;58.27;33.63;;;4.30;99.90;;;-146.47;100.00;66290.13;4910101;29;20268;-79
2021/01/02 06:46:35;;;;;;;61.63;31.80;;;4.30;99.90;;;-146.47;100.00;66290.13;4902591;29;20216;-81
2021/01/02 06:49:33;;;;;;;60.73;34.50;;;4.30;99.90;;;-146.47;100.00;66290.13;4895388;29;20212;-82
2021/01/02 06:52:30;;;;;;;67.57;34.17;;;4.30;99.90;;;-146.47;100.00;66290.13;4901492;29;20228;-82
2021/01/02 06:55:21;;;;;;;61.23;32.30;;;4.30;99.90;;;-146.47;100.00;66290.13;4882320;29;20746;-79
2021/01/02 06:58:16;;;;;;;56.67;33.47;;;4.30;99.90;;;-146.47;100.00;66290.13;4899373;29;20208;-81
2021/01/02 07:01:03;;;;;;;63.80;33.83;;;4.30;99.90;;;-146.47;100.00;66290.13;4882186;29;20683;-81
2021/01/02 07:03:50;;;;;;;54.23;30.70;;;4.30;99.90;;;-146.47;100.00;66290.13;4890053;29;20216;-80
2021/01/02 07:06:41;;;;;;;60.10;35.53;;;4.30;99.90;;;-146.47;100.00;66290.13;4886796;29;20212;-80
2021/01/02 07:09:28;;;;;;;66.27;36.60;;;4.30;99.90;;;-146.47;100.00;66290.13;4888491;29;20270;-81
2021/01/02 07:12:15;;;;;;;69.27;36.53;;;4.20;99.90;;;-146.47;100.00;66290.13;4898544;29;20249;-81
2021/01/02 07:15:08;;;;;;;60.07;33.10;;;4.30;99.90;;;-146.47;100.00;66290.13;4899712;29;20244;-81
2021/01/02 07:17:53;;;;;;;63.27;36.03;;;4.30;99.90;;;-146.47;100.00;66290.13;4891979;29;20200;-81
2021/01/02 07:20:39;;;;;;;64.43;35.10;;;4.30;99.90;;;-146.47;100.00;66290.13;4904811;29;20229;-81
2021/01/02 07:23:27;;;;;;;68.10;34.27;;;4.20;99.90;;;-146.47;100.00;66290.13;4893753;29;20317;-82
2021/01/02 07:26:21;;;;;;;68.13;35.80;;;4.20;99.90;;;-146.47;100.00;66290.13;4888623;29;20216;-82
2021/01/02 07:29:06;;;;;;;74.90;37.97;;;4.20;99.90;;;-146.47;100.00;66290.13;4902033;29;20249;-81
2021/01/02 07:31:52;;;;;;;72.30;37.03;;;4.20;99.90;;;-146.47;100.00;66290.13;4902846;29;20340;-82
2021/01/02 07:34:38;;;;;;;72.27;37.93;;;4.20;99.90;;;-146.47;100.00;66290.13;4894723;29;20267;-81
2021/01/02 07:37:27;;;;;;;78.43;40.40;;;4.20;99.90;;;-146.47;100.00;66290.13;4898959;29;20232;-81
2021/01/02 07:40:15;;;;;;;66.37;37.17;;;4.20;99.90;;;-146.47;100.00;66290.13;4891386;29;20716;-82
2021/01/02 07:43:02;;;;;;;78.73;36.33;;;4.20;99.90;;;-146.47;100.00;66290.13;4905144;29;20831;-80
2021/01/02 07:45:49;;;;;;;70.37;34.23;;;4.20;99.90;;;-146.47;100.00;66290.13;4904133;29;20312;-80
2021/01/02 07:48:34;;;;;;;74.10;37.50;;;4.20;99.90;;;-146.47;100.00;66290.13;4892261;29;20240;-81
2021/01/02 07:51:19;;;;;;;69.13;38.30;;;4.20;99.90;;;-146.47;100.00;66290.13;4895499;29;20682;-80
2021/01/02 07:54:06;;;;;;;76.53;39.73;;;4.20;99.90;;;-146.47;100.00;66290.13;4899536;29;20232;-81
2021/01/02 07:56:51;;;;;;;72.83;35.97;;;4.20;99.90;;;-146.47;100.00;66290.13;4882765;29;20221;-84
2021/01/02 07:59:39;;;;;;;74.23;36.57;;;4.20;99.90;;;-146.47;100.00;66290.13;4893266;29;20236;-81
2021/01/02 08:02:25;;;;;;;80.17;37.73;;;4.10;99.90;;;-146.47;100.00;66290.13;4889587;29;20234;-80
2021/01/02 08:05:13;;;;;;;71.33;35.50;;;4.10;99.90;;;-146.47;100.00;66290.13;4890095;29;20652;-81
2021/01/02 08:08:01;;;;;;;76.17;38.27;;;4.10;99.90;;;-146.47;100.00;66290.13;4884560;29;20212;-78
2021/01/02 08:10:47;;;;;;;72.37;38.90;;;4.10;99.90;;;-146.47;100.00;66290.13;4893163;29;20666;-79
2021/01/02 08:13:33;;;;;;;78.00;41.13;;;4.20;99.90;;;-146.47;100.00;66290.13;4889897;29;20277;-82
2021/01/02 08:16:27;;;;;;;76.47;36.03;;;4.20;99.90;;;-146.47;100.00;66290.13;4887638;29;20293;-82
2021/01/02 08:19:12;;;;;;;78.67;39.90;;;4.20;99.90;;;-146.47;100.00;66290.13;4887605;29;20254;-82
2021/01/02 08:22:00;;;;;;;74.77;38.93;;;4.20;99.90;;;-146.47;100.00;66290.13;4888778;29;20349;-79
2021/01/02 08:24:54;;;;;;;81.20;39.40;;;4.20;99.90;;;-146.47;100.00;66290.13;4885549;29;20313;-79
2021/01/02 08:27:41;;;;;;;79.60;38.53;;;4.20;99.90;;;-146.47;100.00;66290.13;4889456;29;20666;-80
2021/01/02 08:30:27;;;;;;;74.07;37.10;;;4.20;99.90;;;-146.47;100.00;66290.13;4893522;29;20209;-80
2021/01/02 08:33:15;;;;;;;81.10;41.20;;;4.20;99.90;;;-146.47;100.00;66290.13;4882123;29;20746;-80
2021/01/02 08:36:00;;;;;;;82.43;37.77;;;4.20;99.90;;;-146.47;100.00;66290.13;4886648;29;20254;-80
2021/01/02 08:38:54;;;;;;;74.70;35.23;;;4.20;99.90;;;-146.47;100.00;66290.13;4889391;29;20266;-80
2021/01/02 08:41:40;;;;;;;96.47;41.97;;;4.20;99.90;;;-146.47;100.00;66290.13;4890375;29;20611;-80
2021/01/02 08:44:32;;;;;;;75.57;39.47;;;4.20;99.90;;;-146.47;100.00;66290.13;4891019;29;20224;-80
2021/01/02 08:47:25;;;;;;;81.47;38.90;;;4.30;99.90;;;-146.47;100.00;66290.13;4887549;29;20207;-80
2021/01/02 08:50:13;;;;;;;73.43;37.43;;;4.30;99.90;;;-146.47;100.00;66290.13;4891814;29;20209;-81
2021/01/02 08:52:58;;;;;;;69.47;35.27;;;4.30;99.90;;;-146.47;100.00;66290.13;4888620;29;20216;-80
2021/01/02 08:55:45;;;;;;;73.57;37.77;;;4.30;99.90;;;-146.47;100.00;66290.13;4883482;29;20306;-80
2021/01/02 08:58:31;;;;;;;71.03;34.60;;;4.30;99.90;;;-146.47;100.00;66290.13;4889199;29;20290;-81
2021/01/02 09:01:17;;;;;;;75.27;37.53;;;4.30;99.90;;;-146.47;100.00;66290.13;4892523;29;20273;-80
2021/01/02 09:04:11;;;;;;;83.47;39.87;;;4.30;99.90;;;-146.47;100.00;66290.13;4891942;29;20588;-80
2021/01/02 09:07:02;;;;;;;77.03;38.17;;;4.30;99.90;;;-146.47;100.00;66290.13;4890033;29;20213;-81
2021/01/02 09:09:47;;;;;;;77.83;39.10;;;4.40;99.90;;;-146.47;100.00;66290.13;4891074;29;20221;-82
2021/01/02 09:12:32;;;;;;;72.80;35.50;;;4.30;99.90;;;-146.47;100.00;66290.13;4888882;29;20248;-80
2021/01/02 09:15:17;;;;;;;64.63;30.43;;;4.40;99.90;;;-146.47;100.00;66290.13;4890531;29;20268;-83
2021/01/02 09:18:03;;;;;;;75.20;36.97;;;4.40;99.90;;;-146.47;100.00;66290.13;4885233;29;20761;-80
2021/01/02 09:20:49;;;;;;;73.60;35.67;;;4.40;99.90;;;-146.47;100.00;66290.13;4887239;29;20233;-80
2021/01/02 09:23:37;;;;;;;70.67;37.00;;;4.40;99.90;;;-146.47;100.00;66290.13;4895911;29;20208;-81
2021/01/02 09:26:27;;;;;;;69.67;36.83;;;4.50;99.90;;;-146.47;100.00;66290.13;4894130;29;20211;-82
2021/01/02 09:29:15;;;;;;;74.93;36.30;;;4.50;99.90;;;-146.47;100.00;66290.13;4885528;29;20208;-82
2021/01/02 09:32:00;;;;;;;63.73;33.37;;;4.50;99.90;;;-146.47;100.00;66290.13;4895912;29;20239;-81
2021/01/02 09:34:46;;;;;;;66.97;32.47;;;4.50;99.90;;;-146.47;100.00;66290.13;4883055;29;20232;-81
2021/01/02 09:37:31;;;;;;;74.73;36.60;;;4.50;99.90;;;-146.47;100.00;66290.13;4881609;29;20328;-81
2021/01/02 09:40:22;;;;;;;68.03;35.60;;;4.60;99.90;;;-146.47;100.00;66290.13;4905295;29;20721;-81
2021/01/02 09:43:10;;;;;;;73.93;37.87;;;4.60;99.90;;;-146.47;100.00;66290.13;4891463;29;20208;-81
2021/01/02 09:45:55;;;;;;;73.30;35.80;;;4.60;99.90;;;-146.47;100.00;66290.13;4885249;29;20559;-80
2021/01/02 09:48:42;;;;;;;75.20;37.20;;;4.60;99.90;;;-146.47;100.00;66290.13;4902121;29;20734;-80
2021/01/02 09:51:30;;;;;;;60.90;32.03;;;4.70;99.90;;;-146.47;100.00;66290.13;4901159;29;20216;-81
2021/01/02 09:54:15;;;;;;;65.77;33.53;;;4.70;99.90;;;-146.47;100.00;66290.13;4901100;29;20229;-80
2021/01/02 09:57:02;;;;;;;60.70;31.63;;;4.70;99.90;;;-146.47;100.00;66290.13;4893013;29;20251;-80
2021/01/02 09:59:48;;;;;;;62.73;30.97;;;4.80;99.90;;;-146.47;100.00;66290.13;4896345;29;20241;-80
2021/01/02 10:02:33;;;;;;;61.47;29.43;;;4.80;99.90;;;-146.47;100.00;66290.13;4885023;29;20224;-81
2021/01/02 10:05:21;;;;;;;68.17;35.07;;;4.80;99.90;;;-146.47;100.00;66290.13;4899687;29;20307;-81
2021/01/02 10:08:07;;;;;;;73.53;34.80;;;4.80;99.90;;;-146.47;100.00;66290.13;4888415;29;20819;-82
2021/01/02 10:10:52;;;;;;;56.90;31.50;;;4.90;99.90;;;-146.47;100.00;66290.13;4889430;29;20205;-80
2021/01/02 10:13:38;;;;;;;66.03;35.77;;;4.90;99.90;;;-146.47;100.00;66290.13;4892313;29;20664;-82
2021/01/02 10:16:24;;;;;;;67.70;34.43;;;4.90;99.90;;;-146.47;100.00;66290.13;4897963;29;20288;-82
2021/01/02 10:19:12;;;;;;;61.87;32.00;;;4.90;99.90;;;-146.47;100.00;66290.13;4890019;29;20248;-81
2021/01/02 10:21:57;;;;;;;66.93;34.63;;;4.90;99.90;;;-146.47;100.00;66290.13;4894237;29;20212;-81
2021/01/02 10:24:48;;;;;;;63.87;31.67;;;4.90;99.90;;;-146.47;100.00;66290.13;4895744;29;20235;-81
2021/01/02 10:27:33;;;;;;;75.20;36.27;;;4.90;99.90;;;-146.47;100.00;66290.13;4890356;29;20261;-80
2021/01/02 10:30:20;;;;;;;72.20;35.60;;;5.00;99.90;;;-146.47;100.00;66290.13;4896573;29;20216;-80
2021/01/02 10:33:05;;;;;;;77.67;36.70;;;5.00;99.90;;;-146.47;100.00;66290.13;4892033;29;20221;-81
2021/01/02 10:35:51;;;;;;;71.90;34.97;;;5.00;99.90;;;-146.47;100.00;66290.13;4888995;29;20280;-81
2021/01/02 10:38:36;;;;;;;75.30;36.07;;;5.00;99.90;;;-146.47;100.00;66290.13;4896378;29;20219;-82
2021/01/02 10:41:21;;;;;;;69.80;35.60;;;5.00;99.90;;;-146.47;100.00;66290.13;4887071;29;20701;-80
2021/01/02 10:44:07;;;;;;;72.53;33.07;;;5.00;99.90;;;-146.47;100.00;66290.13;4898329;29;20287;-81
2021/01/02 10:46:54;;;;;;;58.37;28.87;;;5.00;99.90;;;-146.47;100.00;66290.13;4906196;29;20208;-82
2021/01/02 10:49:40;;;;;;;61.03;29.07;;;5.00;99.90;;;-146.47;100.00;66290.13;4895624;29;20588;-81
2021/01/02 10:52:28;;;;;;;58.20;30.17;;;5.00;99.90;;;-146.47;100.00;66290.13;4907465;29;20257;-82
2021/01/02 10:55:13;;;;;;;61.90;30.03;;;5.10;99.90;;;-146.47;100.00;66290.13;4907967;29;20239;-82
2021/01/02 10:57:58;;;;;;;56.93;32.37;;;5.10;99.90;;;-146.47;100.00;66290.13;4885186;29;20240;-84
2021/01/02 11:00:44;;;;;;;65.77;30.60;;;5.10;99.90;;;-146.47;100.00;66290.13;4895021;29;20242;-83
2021/01/02 11:03:30;;;;;;;61.87;30.87;;;5.10;99.90;;;-146.47;100.00;66290.13;4895106;29;20300;-83
2021/01/02 11:06:17;;;;;;;61.33;32.07;;;5.10;99.90;;;-146.47;100.00;66290.13;4900279;29;20579;-80
2021/01/02 11:09:03;;;;;;;61.53;31.10;;;5.10;99.90;;;-146.47;100.00;66290.13;4902238;29;20280;-80
2021/01/02 11:11:52;;;;;;;64.07;31.47;;;5.10;99.90;;;-146.47;100.00;66290.13;4890668;29;20772;-81
2021/01/02 11:14:39;;;;;;;61.00;30.60;;;5.10;99.90;;;-146.47;100.00;66290.13;4892826;29;20228;-80
2021/01/02 11:17:24;;;;;;;70.03;33.90;;;5.20;99.90;;;-146.47;100.00;66290.13;4896393;29;20208;-83
2021/01/02 11:20:13;;;;;;;47.00;24.17;;;5.20;99.90;;;-146.47;100.00;66290.13;4900776;29;20224;-83
2021/01/02 11:22:58;;;;;;;56.27;29.43;;;5.30;99.90;;;-146.47;100.00;66290.13;4899702;29;20699;-81